createdAt,value
2019-04-20T00:01:22.747Z,11.80
2019-04-20T00:03:49.024Z,8.98
2019-04-20T00:06:19.488Z,8.70
2019-04-20T00:08:55.488Z,8.23
2019-04-20T00:11:26.314Z,7.30
2019-04-20T00:13:57.709Z,10.13
2019-04-20T00:16:21.079Z,8.13
2019-04-20T00:18:53.934Z,8.13
2019-04-20T00:21:42.788Z,9.70
2019-04-20T00:24:22.880Z,10.28
2019-04-20T00:27:22.058Z,8.48
2019-04-20T00:29:35.456Z,8.68
2019-04-20T00:31:59.376Z,6.70
2019-04-20T00:34:22.845Z,7.33
2019-04-20T00:36:47.523Z,7.37
2019-04-20T00:39:17.169Z,7.67
2019-04-20T00:41:52.097Z,6.17
2019-04-20T00:44:23.365Z,8.80
2019-04-20T00:47:04.767Z,9.15
2019-04-20T00:49:36.240Z,9.53
2019-04-20T00:52:18.817Z,9.68
2019-04-20T00:54:20.151Z,11.05
2019-04-20T00:56:52.056Z,7.60
2019-04-20T00:59:35.468Z,7.37
2019-04-20T01:02:10.607Z,6.83
2019-04-20T01:04:44.121Z,8.03
2019-04-20T01:07:10.768Z,7.00
2019-04-20T01:09:30.823Z,8.25
2019-04-20T01:12:05.137Z,6.53
2019-04-20T01:14:37.965Z,7.35
2019-04-20T01:17:11.410Z,6.50
2019-04-20T01:19:31.076Z,8.18
2019-04-20T01:22:05.245Z,7.00
2019-04-20T01:24:35.375Z,7.12
2019-04-20T01:27:04.154Z,8.25
2019-04-20T01:29:39.370Z,7.25
2019-04-20T01:32:15.621Z,6.70
2019-04-20T01:34:49.660Z,5.37
2019-04-20T01:37:17.914Z,8.05
2019-04-20T01:39:41.495Z,7.85
2019-04-20T01:42:04.578Z,7.65
2019-04-20T01:44:40.188Z,6.35
2019-04-20T01:47:06.333Z,7.30
2019-04-20T01:49:36.829Z,6.42
2019-04-20T01:52:13.870Z,7.53
2019-04-20T01:54:58.023Z,7.12
2019-04-20T01:57:26.142Z,9.30
2019-04-20T02:00:14.449Z,6.55
2019-04-20T02:02:56.504Z,7.35
2019-04-20T02:05:24.719Z,7.53
2019-04-20T02:07:55.048Z,8.33
2019-04-20T02:10:31.203Z,7.17
2019-04-20T02:12:57.921Z,7.03
2019-04-20T02:15:32.715Z,6.03
2019-04-20T02:18:07.673Z,5.92
2019-04-20T02:20:44.604Z,7.17
2019-04-20T02:23:12.698Z,7.37
2019-04-20T02:25:26.974Z,7.17
2019-04-20T02:28:14.775Z,7.20
2019-04-20T02:31:06.509Z,6.42
2019-04-20T02:33:59.244Z,6.87
2019-04-20T02:36:42.969Z,6.37
2019-04-20T02:41:20.150Z,7.17
2019-04-20T02:46:28.603Z,8.03
2019-04-20T02:49:06.043Z,6.53
2019-04-20T02:51:22.617Z,7.35
2019-04-20T02:54:13.117Z,6.92
2019-04-20T02:56:32.723Z,6.85
2019-04-20T02:59:02.499Z,7.75
2019-04-20T03:01:29.454Z,7.42
2019-04-20T03:03:46.246Z,7.25
2019-04-20T03:06:22.763Z,7.05
2019-04-20T03:09:04.301Z,7.97
2019-04-20T03:11:40.419Z,9.28
2019-04-20T03:14:02.212Z,9.93
2019-04-20T03:16:32.407Z,8.28
2019-04-20T03:18:58.473Z,8.53
2019-04-20T03:21:38.683Z,8.05
2019-04-20T03:24:11.720Z,8.55
2019-04-20T03:26:57.943Z,8.48
2019-04-20T03:29:40.846Z,7.80
2019-04-20T03:37:28.101Z,7.35
2019-04-20T03:39:40.505Z,7.53
2019-04-20T03:42:01.066Z,8.05
2019-04-20T03:44:34.031Z,8.50
2019-04-20T03:47:06.827Z,8.15
2019-04-20T03:49:55.066Z,7.78
2019-04-20T03:52:27.708Z,9.85
2019-04-20T03:55:10.285Z,8.35
2019-04-20T03:57:47.740Z,8.55
2019-04-20T04:00:26.476Z,9.15
2019-04-20T04:03:10.501Z,9.90
2019-04-20T04:05:27.894Z,7.33
2019-04-20T04:07:45.265Z,8.85
2019-04-20T04:10:27.254Z,11.18
2019-04-20T04:13:16.892Z,8.08
2019-04-20T04:15:53.276Z,5.83
2019-04-20T04:18:26.127Z,11.03
2019-04-20T04:20:57.297Z,11.33
2019-04-20T04:23:38.216Z,9.05
2019-04-20T04:26:08.605Z,8.25
2019-04-20T04:28:36.991Z,8.00
2019-04-20T04:31:14.627Z,8.33
2019-04-20T04:36:10.538Z,8.58
2019-04-20T04:41:19.986Z,7.35
2019-04-20T04:43:44.443Z,7.70
2019-04-20T04:45:57.463Z,7.95
2019-04-20T04:48:33.029Z,7.85
2019-04-20T04:51:03.869Z,8.23
2019-04-20T04:53:41.732Z,8.43
2019-04-20T04:56:04.901Z,9.10
2019-04-20T04:58:29.823Z,9.45
2019-04-20T05:01:06.605Z,7.30
2019-04-20T05:03:44.704Z,7.53
2019-04-20T05:06:20.971Z,8.80
2019-04-20T05:08:38.625Z,8.03
2019-04-20T05:11:03.235Z,7.25
2019-04-20T05:13:37.072Z,7.83
2019-04-20T05:16:16.904Z,8.40
2019-04-20T05:18:57.884Z,7.53
2019-04-20T05:21:26.022Z,8.40
2019-04-20T05:23:47.918Z,5.75
2019-04-20T05:26:42.439Z,10.38
2019-04-20T05:29:01.361Z,7.58
2019-04-20T05:31:30.883Z,8.25
2019-04-20T05:34:19.980Z,7.78
2019-04-20T05:36:46.277Z,9.18
2019-04-20T05:39:23.649Z,8.58
2019-04-20T05:41:44.084Z,8.18
2019-04-20T05:44:12.701Z,7.45
2019-04-20T05:46:48.252Z,8.83
2019-04-20T05:49:22.067Z,7.78
2019-04-20T05:51:49.846Z,8.45
2019-04-20T05:54:23.312Z,8.53
2019-04-20T05:56:52.497Z,7.60
2019-04-20T05:59:23.431Z,8.03
2019-04-20T06:02:01.389Z,7.10
2019-04-20T06:04:44.532Z,8.03
2019-04-20T06:06:55.209Z,8.23
2019-04-20T06:09:30.238Z,9.15
2019-04-20T06:12:07.591Z,8.73
2019-04-20T06:14:43.163Z,8.65
2019-04-20T06:17:20.974Z,8.20
2019-04-20T06:19:44.194Z,11.73
2019-04-20T06:22:37.892Z,9.60
2019-04-20T06:25:24.116Z,10.78
2019-04-20T06:27:34.217Z,9.95
2019-04-20T06:30:08.562Z,10.78
2019-04-20T06:32:59.252Z,11.00
2019-04-20T06:35:45.487Z,8.23
2019-04-20T06:38:23.194Z,9.13
2019-04-20T06:40:47.392Z,8.48
2019-04-20T06:43:05.490Z,10.25
2019-04-20T06:45:33.770Z,9.35
2019-04-20T06:48:12.261Z,9.90
2019-04-20T06:50:32.601Z,9.58
2019-04-20T06:53:22.061Z,10.40
2019-04-20T06:55:49.759Z,10.00
2019-04-20T06:58:31.926Z,10.43
2019-04-20T07:00:46.474Z,9.50
2019-04-20T07:03:30.607Z,9.38
2019-04-20T07:05:47.787Z,9.23
2019-04-20T07:08:34.588Z,10.98
2019-04-20T07:10:54.546Z,10.25
2019-04-20T07:13:12.870Z,10.88
2019-04-20T07:15:46.470Z,10.70
2019-04-20T07:18:24.571Z,10.30
2019-04-20T07:23:26.912Z,9.03
2019-04-20T07:26:02.136Z,10.13
2019-04-20T07:28:35.339Z,8.70
2019-04-20T07:30:58.251Z,9.40
2019-04-20T07:33:29.656Z,8.88
2019-04-20T07:35:56.007Z,10.20
2019-04-20T07:38:34.286Z,9.30
2019-04-20T07:40:59.614Z,9.50
2019-04-20T07:43:29.985Z,10.23
2019-04-20T07:46:01.846Z,9.20
2019-04-20T07:48:30.497Z,10.43
2019-04-20T07:50:55.451Z,9.40
2019-04-20T07:53:25.388Z,8.88
2019-04-20T07:56:05.134Z,11.30
2019-04-20T07:58:25.175Z,10.35
2019-04-20T08:01:07.987Z,10.85
2019-04-20T08:03:44.200Z,10.28
2019-04-20T08:06:14.508Z,9.53
2019-04-20T08:08:57.102Z,10.65
2019-04-20T08:11:36.610Z,10.63
2019-04-20T08:14:06.046Z,9.68
2019-04-20T08:19:05.178Z,9.20
2019-04-20T08:21:39.141Z,10.45
2019-04-20T08:24:07.025Z,9.68
2019-04-20T08:26:23.507Z,9.30
2019-04-20T08:28:55.267Z,9.45
2019-04-20T08:31:47.366Z,9.18
2019-04-20T08:34:38.377Z,9.95
2019-04-20T08:37:01.364Z,9.20
2019-04-20T08:39:45.375Z,9.30
2019-04-20T08:42:06.329Z,9.00
2019-04-20T08:44:55.187Z,9.03
2019-04-20T08:47:20.310Z,8.65
2019-04-20T08:49:41.327Z,10.35
2019-04-20T08:52:31.974Z,8.98
2019-04-20T08:54:34.415Z,10.88
2019-04-20T08:56:55.367Z,10.63
2019-04-20T08:59:21.211Z,10.65
2019-04-20T09:01:51.065Z,9.38
2019-04-20T09:04:29.549Z,10.70
2019-04-20T09:07:03.998Z,11.53
2019-04-20T09:12:11.544Z,10.90
2019-04-20T09:14:23.669Z,11.73
2019-04-20T09:17:00.285Z,10.65
2019-04-20T09:19:34.632Z,11.83
2019-04-20T09:22:24.300Z,12.35
2019-04-20T09:25:13.399Z,11.65
2019-04-20T09:27:26.875Z,11.03
2019-04-20T09:30:06.206Z,11.03
2019-04-20T09:32:35.454Z,12.35
2019-04-20T09:35:07.823Z,11.48
2019-04-20T09:37:43.544Z,11.35
2019-04-20T09:40:28.275Z,11.28
2019-04-20T09:42:53.016Z,10.60
2019-04-20T09:45:33.915Z,10.18
2019-04-20T09:47:58.374Z,10.25
2019-04-20T09:50:43.757Z,9.08
2019-04-20T09:53:14.333Z,10.30
2019-04-20T09:55:46.881Z,10.15
2019-04-20T09:58:13.546Z,9.53
2019-04-20T10:01:00.774Z,11.18
2019-04-20T10:03:16.615Z,10.72
2019-04-20T10:05:49.638Z,11.38
2019-04-20T10:08:19.665Z,12.55
2019-04-20T10:10:51.197Z,11.68
2019-04-20T10:13:21.640Z,12.60
2019-04-20T10:15:50.877Z,11.73
2019-04-20T10:18:21.772Z,12.30
2019-04-20T10:20:51.621Z,11.40
2019-04-20T10:23:22.697Z,11.05
2019-04-20T10:25:51.855Z,10.68
2019-04-20T10:28:21.549Z,11.93
2019-04-20T10:30:50.871Z,11.88
2019-04-20T10:33:19.911Z,12.50
2019-04-20T10:35:49.648Z,14.10
2019-04-20T10:38:23.321Z,13.98
2019-04-20T10:41:01.896Z,14.47
2019-04-20T10:43:23.964Z,13.88
2019-04-20T10:45:53.181Z,13.83
2019-04-20T10:48:23.499Z,14.68
2019-04-20T10:50:55.274Z,13.58
2019-04-20T10:53:24.266Z,12.68
2019-04-20T10:55:53.669Z,12.40
2019-04-20T10:58:22.804Z,13.00
2019-04-20T11:00:51.945Z,12.28
2019-04-20T11:03:22.778Z,12.60
2019-04-20T11:05:52.953Z,12.13
2019-04-20T11:08:22.455Z,12.30
2019-04-20T11:11:03.441Z,14.20
2019-04-20T11:13:25.444Z,14.03
2019-04-20T11:15:55.104Z,13.45
2019-04-20T11:18:25.053Z,12.70
2019-04-20T11:20:55.328Z,12.35
2019-04-20T11:23:24.529Z,11.90
2019-04-20T11:25:53.795Z,11.95
2019-04-20T11:28:23.975Z,12.63
2019-04-20T11:30:54.239Z,12.20
2019-04-20T11:33:24.541Z,12.53
2019-04-20T11:35:54.981Z,12.03
2019-04-20T11:38:26.101Z,12.05
2019-04-20T11:41:09.958Z,10.93
2019-04-20T11:43:26.101Z,12.53
2019-04-20T11:45:56.429Z,12.65
2019-04-20T11:48:25.971Z,12.55
2019-04-20T11:50:56.104Z,11.83
2019-04-20T11:53:26.859Z,12.53
2019-04-20T11:55:58.486Z,11.48
2019-04-20T11:58:27.977Z,10.60
2019-04-20T12:01:05.062Z,11.57
2019-04-20T12:03:37.874Z,11.35
2019-04-20T12:06:04.705Z,10.65
2019-04-20T12:08:32.668Z,11.22
2019-04-20T12:11:18.808Z,10.65
2019-04-20T12:13:34.402Z,11.40
2019-04-20T12:16:03.618Z,12.30
2019-04-20T12:18:33.695Z,10.90
2019-04-20T12:21:03.081Z,11.63
2019-04-20T12:23:34.004Z,11.25
2019-04-20T12:26:03.032Z,10.68
2019-04-20T12:28:33.616Z,10.23
2019-04-20T12:31:11.420Z,10.78
2019-04-20T12:33:34.550Z,11.00
2019-04-20T12:36:06.008Z,11.35
2019-04-20T12:38:35.229Z,10.45
2019-04-20T12:41:06.126Z,9.83
2019-04-20T12:43:36.016Z,9.25
2019-04-20T12:46:05.647Z,9.23
2019-04-20T12:48:35.548Z,9.63
2019-04-20T12:51:05.768Z,9.68
2019-04-20T12:53:35.025Z,8.48
2019-04-20T12:56:06.414Z,9.25
2019-04-20T12:58:37.159Z,9.85
2019-04-20T13:01:08.094Z,10.08
2019-04-20T13:03:37.365Z,9.05
2019-04-20T13:06:07.883Z,10.98
2019-04-20T13:08:43.423Z,9.20
2019-04-20T13:11:14.011Z,10.03
2019-04-20T13:13:50.567Z,11.05
2019-04-20T13:16:23.767Z,11.68
2019-04-20T13:18:55.272Z,12.43
2019-04-20T13:21:27.602Z,11.78
2019-04-20T13:23:56.777Z,13.53
2019-04-20T13:26:27.050Z,12.58
2019-04-20T13:28:57.131Z,12.33
2019-04-20T13:31:29.696Z,12.13
2019-04-20T13:33:59.128Z,11.85
2019-04-20T13:36:28.587Z,12.00
2019-04-20T13:38:59.421Z,12.28
2019-04-20T13:41:29.797Z,13.10
2019-04-20T13:44:01.232Z,13.25
2019-04-20T13:46:31.244Z,13.30
2019-04-20T13:49:00.869Z,13.95
2019-04-20T13:51:30.823Z,13.93
2019-04-20T13:54:01.486Z,14.40
2019-04-20T13:56:32.265Z,12.70
2019-04-20T13:59:03.778Z,13.48
2019-04-20T14:01:50.550Z,13.78
2019-04-20T14:04:23.105Z,12.70
2019-04-20T14:06:57.567Z,11.78
2019-04-20T14:09:27.576Z,12.90
2019-04-20T14:12:04.744Z,14.33
2019-04-20T14:14:28.956Z,14.35
2019-04-20T14:16:59.467Z,13.93
2019-04-20T14:19:29.333Z,15.13
2019-04-20T14:21:59.545Z,15.70
2019-04-20T14:24:28.966Z,15.40
2019-04-20T14:26:59.005Z,16.07
2019-04-20T14:29:30.676Z,15.58
2019-04-20T14:32:02.292Z,15.15
2019-04-20T14:34:31.123Z,15.70
2019-04-20T14:37:00.548Z,15.28
2019-04-20T14:39:30.269Z,16.52
2019-04-20T14:42:00.438Z,16.23
2019-04-20T14:44:29.890Z,17.10
2019-04-20T14:46:59.991Z,17.48
2019-04-20T14:49:30.398Z,17.20
2019-04-20T14:52:01.561Z,16.42
2019-04-20T14:54:31.838Z,17.67
2019-04-20T14:57:03.441Z,16.27
2019-04-20T14:59:37.816Z,16.35
2019-04-20T15:02:12.564Z,16.75
2019-04-20T15:04:43.272Z,15.98
2019-04-20T15:07:13.051Z,14.60
2019-04-20T15:09:42.778Z,13.95
2019-04-20T15:12:12.932Z,15.68
2019-04-20T15:14:42.808Z,15.20
2019-04-20T15:17:13.750Z,14.73
2019-04-20T15:19:47.521Z,17.12
2019-04-20T15:22:33.882Z,16.87
2019-04-20T15:25:03.275Z,16.65
2019-04-20T15:27:35.209Z,17.82
2019-04-20T15:30:06.602Z,15.72
2019-04-20T15:32:36.853Z,16.48
2019-04-20T15:35:09.029Z,17.92
2019-04-20T15:37:39.490Z,17.85
2019-04-20T15:40:09.200Z,20.10
2019-04-20T15:42:51.473Z,20.23
2019-04-20T15:45:11.430Z,19.32
2019-04-20T15:47:40.351Z,19.35
2019-04-20T15:50:09.674Z,18.27
2019-04-20T15:52:44.988Z,19.95
2019-04-20T15:55:19.683Z,18.75
2019-04-20T15:57:40.668Z,19.70
2019-04-20T16:00:10.899Z,19.02
2019-04-20T16:02:45.340Z,19.57
2019-04-20T16:05:33.231Z,20.23
2019-04-20T16:08:21.884Z,20.25
2019-04-20T16:10:54.862Z,18.98
2019-04-20T16:13:35.203Z,20.62
2019-04-20T16:15:56.011Z,20.20
2019-04-20T16:18:25.203Z,21.15
2019-04-20T16:21:00.415Z,19.70
2019-04-20T16:23:25.025Z,19.90
2019-04-20T16:25:59.982Z,20.85
2019-04-20T16:28:31.924Z,21.42
2019-04-20T16:31:01.490Z,19.82
2019-04-20T16:33:34.525Z,18.55
2019-04-20T16:36:04.758Z,16.80
2019-04-20T16:38:35.140Z,16.50
2019-04-20T16:41:04.287Z,17.27
2019-04-20T16:43:40.326Z,16.32
2019-04-20T16:46:05.624Z,17.32
2019-04-20T16:48:35.942Z,19.20
2019-04-20T16:51:13.187Z,19.60
2019-04-20T16:53:43.598Z,18.75
2019-04-20T16:56:14.509Z,16.35
2019-04-20T16:58:48.287Z,14.80
2019-04-20T17:01:17.088Z,16.35
2019-04-20T17:03:54.529Z,18.92
2019-04-20T17:06:16.477Z,19.32
2019-04-20T17:08:46.489Z,21.20
2019-04-20T17:11:16.061Z,18.80
2019-04-20T17:13:49.700Z,19.00
2019-04-20T17:16:15.724Z,19.20
2019-04-20T17:18:47.874Z,15.23
2019-04-20T17:21:23.213Z,18.73
2019-04-20T17:23:49.345Z,17.02
2019-04-20T17:26:36.734Z,16.82
2019-04-20T17:29:17.953Z,17.12
2019-04-20T17:31:57.817Z,18.23
2019-04-20T17:34:44.011Z,16.27
2019-04-20T17:36:57.860Z,13.65
2019-04-20T17:39:37.325Z,16.42
2019-04-20T17:42:14.654Z,18.55
2019-04-20T17:44:42.853Z,17.37
2019-04-20T17:47:11.526Z,20.30
2019-04-20T17:49:39.384Z,17.85
2019-04-20T17:52:26.554Z,19.15
2019-04-20T17:54:41.304Z,18.30
2019-04-20T17:57:11.068Z,17.40
2019-04-20T17:59:47.270Z,16.42
2019-04-20T18:02:47.477Z,20.80
2019-04-20T18:05:25.632Z,18.12
2019-04-20T18:07:44.847Z,19.12
2019-04-20T18:10:17.221Z,17.40
2019-04-20T18:12:37.415Z,17.12
2019-04-20T18:15:21.729Z,19.37
2019-04-20T18:18:07.197Z,20.95
2019-04-20T18:20:28.050Z,21.52
2019-04-20T18:22:58.662Z,21.70
2019-04-20T18:25:57.432Z,22.52
2019-04-20T18:28:13.647Z,19.82
2019-04-20T18:30:51.452Z,20.37
2019-04-20T18:33:13.669Z,17.42
2019-04-20T18:35:46.010Z,20.95
2019-04-20T18:38:16.518Z,23.20
2019-04-20T18:40:53.446Z,18.95
2019-04-20T18:43:20.477Z,18.98
2019-04-20T18:46:03.727Z,15.28
2019-04-20T18:48:39.252Z,16.23
2019-04-20T18:50:48.416Z,18.50
2019-04-20T18:53:28.390Z,18.55
2019-04-20T18:55:55.151Z,19.82
2019-04-20T18:58:19.178Z,20.05
2019-04-20T19:00:51.697Z,21.52
2019-04-20T19:03:25.767Z,20.43
2019-04-20T19:05:49.633Z,25.23
2019-04-20T19:08:19.265Z,22.25
2019-04-20T19:10:57.582Z,20.23
2019-04-20T19:13:30.426Z,21.65
2019-04-20T19:16:09.428Z,21.25
2019-04-20T19:18:45.262Z,24.35
2019-04-20T19:21:01.288Z,21.80
2019-04-20T19:23:30.199Z,22.65
2019-04-20T19:26:04.439Z,21.45
2019-04-20T19:28:37.819Z,19.00
2019-04-20T19:31:14.706Z,17.70
2019-04-20T19:33:52.435Z,17.48
2019-04-20T19:36:15.124Z,17.98
2019-04-20T19:38:48.896Z,19.23
2019-04-20T19:41:18.732Z,19.52
2019-04-20T19:43:45.687Z,19.52
2019-04-20T19:48:48.675Z,17.07
2019-04-20T19:51:29.893Z,18.52
2019-04-20T19:53:57.252Z,14.75
2019-04-20T19:56:17.152Z,17.00
2019-04-20T19:58:53.340Z,15.30
2019-04-20T20:01:06.744Z,16.87
2019-04-20T20:03:37.377Z,16.15
2019-04-20T20:06:12.023Z,18.42
2019-04-20T20:08:39.974Z,15.88
2019-04-20T20:11:09.633Z,18.90
2019-04-20T20:13:44.693Z,16.75
2019-04-20T20:16:14.489Z,17.62
2019-04-20T20:18:53.356Z,15.28
2019-04-20T20:21:22.252Z,19.15
2019-04-20T20:23:41.806Z,16.17
2019-04-20T20:26:22.029Z,20.72
2019-04-20T20:28:49.468Z,17.87
2019-04-20T20:31:27.521Z,23.98
2019-04-20T20:33:59.028Z,17.50
2019-04-20T20:36:19.310Z,20.37
2019-04-20T20:38:50.218Z,14.85
2019-04-20T20:41:23.603Z,14.30
2019-04-20T20:43:56.320Z,21.10
2019-04-20T20:46:23.970Z,22.40
2019-04-20T20:49:17.022Z,21.45
2019-04-20T20:51:44.278Z,16.57
2019-04-20T20:53:59.034Z,15.13
2019-04-20T20:56:24.413Z,18.37
2019-04-20T20:58:59.193Z,15.45
2019-04-20T21:01:23.697Z,13.45
2019-04-20T21:03:52.604Z,15.90
2019-04-20T21:06:20.275Z,15.75
2019-04-20T21:08:52.341Z,15.43
2019-04-20T21:11:25.324Z,18.20
2019-04-20T21:13:52.124Z,17.67
2019-04-20T21:16:25.617Z,13.05
2019-04-20T21:19:10.486Z,17.80
2019-04-20T21:21:37.090Z,18.77
2019-04-20T21:24:00.414Z,16.93
2019-04-20T21:26:30.450Z,17.57
2019-04-20T21:28:55.491Z,17.37
2019-04-20T21:31:28.976Z,15.88
2019-04-20T21:33:55.188Z,16.75
2019-04-20T21:36:28.277Z,17.45
2019-04-20T21:38:55.833Z,16.42
2019-04-20T21:41:26.090Z,13.43
2019-04-20T21:43:55.982Z,15.30
2019-04-20T21:46:31.925Z,16.00
2019-04-20T21:49:08.142Z,17.23
2019-04-20T21:51:37.086Z,18.62
2019-04-20T21:53:58.734Z,18.60
2019-04-20T21:56:28.086Z,17.82
2019-04-20T21:59:02.093Z,18.90
2019-04-20T22:01:35.718Z,16.97
2019-04-20T22:03:58.615Z,19.50
2019-04-20T22:06:28.505Z,15.45
2019-04-20T22:09:01.091Z,17.25
2019-04-20T22:11:27.903Z,18.10
2019-04-20T22:13:57.450Z,18.23
2019-04-20T22:16:36.409Z,17.52
2019-04-20T22:19:14.584Z,17.95
2019-04-20T22:21:43.716Z,16.07
2019-04-20T22:24:09.481Z,19.23
2019-04-20T22:26:39.541Z,17.00
2019-04-20T22:29:00.444Z,17.67
2019-04-20T22:31:29.956Z,17.45
2019-04-20T22:34:04.442Z,18.45
2019-04-20T22:36:37.821Z,17.57
2019-04-20T22:39:18.688Z,17.35
2019-04-20T22:41:53.632Z,13.43
2019-04-20T22:44:22.712Z,16.70
2019-04-20T22:46:52.193Z,17.42
2019-04-20T22:49:38.844Z,16.75
2019-04-20T22:51:59.530Z,18.42
2019-04-20T22:54:39.745Z,14.75
2019-04-20T22:57:03.615Z,13.32
2019-04-20T22:59:37.021Z,13.53
2019-04-20T23:02:00.013Z,14.43
2019-04-20T23:04:24.824Z,15.93
2019-04-20T23:06:54.116Z,15.10
2019-04-20T23:09:24.800Z,14.85
2019-04-20T23:12:03.017Z,16.37
2019-04-20T23:14:24.667Z,16.10
2019-04-20T23:16:55.562Z,16.37
2019-04-20T23:19:35.762Z,17.17
2019-04-20T23:21:59.729Z,15.70
2019-04-20T23:24:24.885Z,16.42
2019-04-20T23:26:55.253Z,16.77
2019-04-20T23:29:28.339Z,16.97
2019-04-20T23:32:01.402Z,14.13
2019-04-20T23:34:29.037Z,18.15
2019-04-20T23:36:56.779Z,16.35
2019-04-20T23:39:34.036Z,18.77
2019-04-20T23:42:00.206Z,18.75
2019-04-20T23:44:40.133Z,19.40
2019-04-20T23:47:20.179Z,16.65
2019-04-20T23:50:11.321Z,17.75
2019-04-20T23:52:43.218Z,17.30
2019-04-20T23:54:59.186Z,19.73
2019-04-20T23:57:24.132Z,17.85
2019-04-20T23:59:53.788Z,18.57
